createdAt,value
2023-01-13T00:01:33.300Z,100519.94
2023-01-13T00:04:02.203Z,100532.72
2023-01-13T00:06:31.077Z,100524.75
2023-01-13T00:08:59.878Z,100531.50
2023-01-13T00:11:29.762Z,100533.28
2023-01-13T00:13:58.201Z,100520.03
2023-01-13T00:16:26.990Z,100521.53
2023-01-13T00:18:55.570Z,100519.69
2023-01-13T00:21:26.226Z,100522.03
2023-01-13T00:23:56.459Z,100527.09
2023-01-13T00:26:27.077Z,100523.66
2023-01-13T00:28:59.908Z,100525.41
2023-01-13T00:31:30.134Z,100521.91
2023-01-13T00:33:59.855Z,100532.28
2023-01-13T00:36:29.120Z,100522.81
2023-01-13T00:38:58.026Z,100515.03
2023-01-13T00:41:28.014Z,100516.84
2023-01-13T00:43:55.591Z,100524.03
2023-01-13T00:46:33.260Z,100518.28
2023-01-13T00:49:02.122Z,100506.56
2023-01-13T00:51:30.927Z,100518.84
2023-01-13T00:53:59.514Z,100519.94
2023-01-13T00:56:39.782Z,100518.31
2023-01-13T00:59:08.852Z,100518.34
2023-01-13T01:01:39.231Z,100517.66
2023-01-13T01:04:08.324Z,100515.84
2023-01-13T01:06:36.850Z,100521.16
2023-01-13T01:09:06.594Z,100532.44
2023-01-13T01:11:36.326Z,100530.59
2023-01-13T01:14:05.794Z,100523.66
2023-01-13T01:16:35.297Z,100515.00
2023-01-13T01:19:05.530Z,100521.03
2023-01-13T01:21:35.271Z,100523.47
2023-01-13T01:24:05.176Z,100531.19
2023-01-13T01:26:34.451Z,100537.97
2023-01-13T01:29:03.513Z,100530.97
2023-01-13T01:31:33.239Z,100524.69
2023-01-13T01:34:02.795Z,100518.56
2023-01-13T01:36:33.672Z,100521.16
2023-01-13T01:39:02.385Z,100520.22
2023-01-13T01:41:33.261Z,100534.72
2023-01-13T01:44:03.144Z,100558.00
2023-01-13T01:46:34.251Z,100552.75
2023-01-13T01:49:12.641Z,100555.53
2023-01-13T01:51:46.897Z,100551.41
2023-01-13T01:54:21.214Z,100556.00
2023-01-13T01:56:50.576Z,100565.72
2023-01-13T01:59:19.622Z,100574.56
2023-01-13T02:01:50.285Z,100576.56
2023-01-13T02:04:22.233Z,100568.06
2023-01-13T02:06:54.031Z,100568.19
2023-01-13T02:09:23.055Z,100575.16
2023-01-13T02:12:09.008Z,100582.75
2023-01-13T02:14:39.227Z,100588.81
2023-01-13T02:17:22.987Z,100580.16
2023-01-13T02:20:30.046Z,100587.91
2023-01-13T02:23:45.325Z,100594.88
2023-01-13T02:27:05.820Z,100600.25
2023-01-13T02:30:09.972Z,100609.00
2023-01-13T02:32:47.526Z,100622.13
2023-01-13T02:35:24.085Z,100618.78
2023-01-13T02:37:53.460Z,100624.06
2023-01-13T02:40:27.336Z,100629.31
2023-01-13T02:43:20.373Z,100637.06
2023-01-13T02:45:54.063Z,100632.84
2023-01-13T02:48:25.081Z,100626.88
2023-01-13T02:50:59.564Z,100627.78
2023-01-13T02:53:32.074Z,100635.34
2023-01-13T02:56:02.411Z,100632.84
2023-01-13T02:58:33.132Z,100629.97
2023-01-13T03:01:03.523Z,100623.53
2023-01-13T03:03:33.646Z,100670.06
2023-01-13T03:06:14.511Z,100655.44
2023-01-13T03:08:47.862Z,100649.63
2023-01-13T03:11:18.883Z,100644.75
2023-01-13T03:14:08.292Z,100644.28
2023-01-13T03:16:50.725Z,100654.22
2023-01-13T03:19:32.997Z,100655.34
2023-01-13T03:22:13.051Z,100642.69
2023-01-13T03:24:46.660Z,100644.63
2023-01-13T03:27:21.895Z,100645.63
2023-01-13T03:29:55.485Z,100650.03
2023-01-13T03:32:28.665Z,100649.16
2023-01-13T03:35:02.420Z,100650.91
2023-01-13T03:37:34.780Z,100647.47
2023-01-13T03:40:09.189Z,100651.78
2023-01-13T03:42:41.759Z,100650.91
2023-01-13T03:45:10.867Z,100645.03
2023-01-13T03:47:47.826Z,100650.03
2023-01-13T03:50:22.007Z,100652.53
2023-01-13T03:52:55.219Z,100656.72
2023-01-13T03:55:30.020Z,100665.25
2023-01-13T03:58:04.284Z,100665.16
2023-01-13T04:00:39.195Z,100664.16
2023-01-13T04:03:13.100Z,100666.56
2023-01-13T04:05:45.329Z,100665.56
2023-01-13T04:08:19.350Z,100664.66
2023-01-13T04:10:54.711Z,100663.75
2023-01-13T04:13:27.536Z,100669.84
2023-01-13T04:15:56.272Z,100669.75
2023-01-13T04:18:28.875Z,100675.88
2023-01-13T04:20:59.455Z,100687.88
2023-01-13T04:23:29.206Z,100684.31
2023-01-13T04:25:58.446Z,100685.22
2023-01-13T04:28:28.062Z,100698.06
2023-01-13T04:30:56.491Z,100698.03
2023-01-13T04:33:26.234Z,100690.28
2023-01-13T04:35:55.321Z,100698.78
2023-01-13T04:38:24.397Z,100701.28
2023-01-13T04:40:53.070Z,100688.38
2023-01-13T04:43:21.484Z,100694.47
2023-01-13T04:45:49.918Z,100694.50
2023-01-13T04:48:19.011Z,100697.09
2023-01-13T04:50:48.879Z,100709.94
2023-01-13T04:53:17.248Z,100711.00
2023-01-13T04:55:47.980Z,100705.03
2023-01-13T04:58:16.714Z,100711.84
2023-01-13T05:00:45.222Z,100720.28
2023-01-13T05:03:13.612Z,100716.91
2023-01-13T05:05:42.312Z,100717.88
2023-01-13T05:08:12.158Z,100737.41
2023-01-13T05:10:40.801Z,100715.78
2023-01-13T05:13:28.102Z,100718.94
2023-01-13T05:16:19.351Z,100735.25
2023-01-13T05:18:47.774Z,100745.53
2023-01-13T05:21:29.875Z,100748.97
2023-01-13T05:24:16.902Z,100746.66
2023-01-13T05:26:45.272Z,100747.88
2023-01-13T05:29:13.666Z,100750.47
2023-01-13T05:31:42.076Z,100751.41
2023-01-13T05:34:10.782Z,100750.72
2023-01-13T05:36:39.206Z,100756.00
2023-01-13T05:39:09.271Z,100757.75
2023-01-13T05:41:55.237Z,100752.69
2023-01-13T05:44:23.623Z,100750.94
2023-01-13T05:46:52.339Z,100756.81
2023-01-13T05:49:20.830Z,100761.88
2023-01-13T05:51:49.239Z,100763.50
2023-01-13T05:54:19.304Z,100766.00
2023-01-13T05:56:47.637Z,100778.06
2023-01-13T05:59:16.031Z,100772.66
2023-01-13T06:01:44.767Z,100766.66
2023-01-13T06:04:13.511Z,100787.09
2023-01-13T06:06:43.589Z,100792.97
2023-01-13T06:09:12.311Z,100802.28
2023-01-13T06:11:42.387Z,100799.09
2023-01-13T06:14:11.155Z,100800.25
2023-01-13T06:16:39.511Z,100803.34
2023-01-13T06:19:09.150Z,100806.81
2023-01-13T06:21:38.954Z,100828.53
2023-01-13T06:24:08.563Z,100821.69
2023-01-13T06:26:40.459Z,100824.47
2023-01-13T06:29:13.427Z,100823.66
2023-01-13T06:31:41.904Z,100805.66
2023-01-13T06:34:14.942Z,100819.53
2023-01-13T06:36:47.489Z,100830.66
2023-01-13T06:39:19.213Z,100811.06
2023-01-13T06:42:08.411Z,100809.25
2023-01-13T06:44:38.271Z,100816.94
2023-01-13T06:47:07.633Z,100816.00
2023-01-13T06:49:36.248Z,100823.72
2023-01-13T06:52:04.940Z,100839.97
2023-01-13T06:54:34.743Z,100850.13
2023-01-13T06:57:03.465Z,100849.25
2023-01-13T06:59:34.450Z,100849.25
2023-01-13T07:02:05.202Z,100848.31
2023-01-13T07:04:33.527Z,100834.50
2023-01-13T07:07:01.866Z,100856.03
2023-01-13T07:09:30.620Z,100850.13
2023-01-13T07:11:59.293Z,100850.31
2023-01-13T07:14:45.466Z,100846.88
2023-01-13T07:17:15.327Z,100858.16
2023-01-13T07:19:43.795Z,100863.44
2023-01-13T07:22:15.285Z,100865.06
2023-01-13T07:24:44.021Z,100865.84
2023-01-13T07:27:12.380Z,100871.78
2023-01-13T07:29:40.980Z,100884.72
2023-01-13T07:32:09.784Z,100886.97
2023-01-13T07:34:39.560Z,100889.47
2023-01-13T08:02:16.006Z,100925.66
2023-01-13T08:04:44.518Z,100943.69
2023-01-13T08:07:13.210Z,100946.19
2023-01-13T08:09:41.739Z,100945.22
2023-01-13T08:12:27.683Z,100944.31
2023-01-13T08:14:56.118Z,100947.59
2023-01-13T08:17:25.879Z,100950.94
2023-01-13T08:19:54.263Z,100952.50
2023-01-13T08:22:24.039Z,100950.59
2023-01-13T08:24:52.403Z,100951.38
2023-01-13T08:27:21.341Z,100959.09
2023-01-13T08:29:49.733Z,100959.94
2023-01-13T08:32:18.163Z,100959.88
2023-01-13T08:34:48.192Z,100965.88
2023-01-13T08:37:17.056Z,100961.50
2023-01-13T08:39:45.397Z,100968.41
2023-01-13T08:42:14.397Z,100963.16
2023-01-13T08:44:43.133Z,100973.44
2023-01-13T08:47:11.419Z,100961.41
2023-01-13T08:49:39.798Z,100962.88
2023-01-13T08:52:09.621Z,100972.88
2023-01-13T08:54:39.616Z,100988.91
2023-01-13T08:57:08.379Z,100980.03
2023-01-13T08:59:36.918Z,100985.13
2023-01-13T09:02:05.505Z,100999.75
2023-01-13T09:04:34.209Z,100999.72
2023-01-13T09:07:03.034Z,101003.09
2023-01-13T09:09:33.254Z,101007.06
2023-01-13T09:12:21.132Z,101014.25
2023-01-13T09:14:49.968Z,101026.50
2023-01-13T09:17:18.709Z,101027.34
2023-01-13T09:19:47.042Z,101035.47
2023-01-13T09:22:17.598Z,101027.72
2023-01-13T09:24:48.352Z,101035.16
2023-01-13T09:27:17.411Z,101044.22
2023-01-13T09:29:45.881Z,101047.63
2023-01-13T09:32:16.002Z,101051.44
2023-01-13T09:35:01.481Z,101043.63
2023-01-13T09:37:34.239Z,101040.53
2023-01-13T09:40:05.128Z,101062.38
2023-01-13T09:43:00.872Z,101053.78
2023-01-13T09:45:34.585Z,101060.72
2023-01-13T09:48:10.238Z,101058.78
2023-01-13T09:50:58.148Z,101050.00
2023-01-13T09:53:33.150Z,101063.22
2023-01-13T09:56:03.172Z,101070.53
2023-01-13T09:58:31.981Z,101062.41
2023-01-13T10:01:17.449Z,101073.59
2023-01-13T10:03:49.191Z,101059.38
2023-01-13T10:06:25.208Z,101066.97
2023-01-13T10:08:53.667Z,101059.75
2023-01-13T10:11:42.620Z,101049.31
2023-01-13T10:14:19.648Z,101060.28
2023-01-13T10:16:52.488Z,101053.50
2023-01-13T10:19:27.760Z,101053.28
2023-01-13T10:22:23.308Z,101059.56
2023-01-13T10:25:18.489Z,101064.22
2023-01-13T10:27:50.282Z,101060.97
2023-01-13T10:30:22.003Z,101062.03
2023-01-13T10:32:57.377Z,101071.84
2023-01-13T10:35:52.009Z,101070.03
2023-01-13T10:38:22.918Z,101067.31
2023-01-13T10:40:54.082Z,101077.63
2023-01-13T10:43:24.758Z,101068.09
2023-01-13T10:45:57.840Z,101075.66
2023-01-13T10:48:34.830Z,101068.94
2023-01-13T10:51:22.117Z,101079.47
2023-01-13T10:53:56.866Z,101077.84
2023-01-13T10:56:28.305Z,101071.06
2023-01-13T10:59:17.580Z,101087.47
2023-01-13T11:02:01.168Z,101085.38
2023-01-13T11:04:37.681Z,101084.16
2023-01-13T11:07:17.985Z,101090.25
2023-01-13T11:09:46.799Z,101086.13
2023-01-13T13:45:19.892Z,101081.34
2023-01-13T13:52:39.181Z,101088.91
2023-01-13T14:14:36.565Z,101103.41
2023-01-13T14:17:07.245Z,101090.41
2023-01-13T14:20:05.924Z,101087.16
2023-01-13T14:22:34.392Z,101073.09
2023-01-13T15:07:17.527Z,101091.28
2023-01-13T15:14:12.312Z,101086.28
2023-01-13T15:16:40.527Z,101087.16
2023-01-13T15:19:11.482Z,101092.41
2023-01-13T15:21:39.702Z,101101.25
2023-01-13T15:41:41.931Z,101111.06
2023-01-13T15:44:32.427Z,101111.28
2023-01-13T15:47:05.280Z,101117.38
2023-01-13T15:49:37.850Z,101099.28
2023-01-13T15:52:15.830Z,101098.41
2023-01-13T15:54:44.102Z,101102.63
2023-01-13T15:57:22.611Z,101097.31
2023-01-13T15:59:52.207Z,101097.31
2023-01-13T16:02:22.756Z,101088.59
2023-01-13T16:04:54.123Z,101095.50
2023-01-13T16:07:25.065Z,101085.97
2023-01-13T16:09:54.324Z,101083.38
2023-01-13T16:12:24.267Z,101090.41
2023-01-13T16:14:53.021Z,101082.72
2023-01-13T16:17:22.838Z,101086.16
2023-01-13T16:20:04.521Z,101076.63
2023-01-13T16:22:51.283Z,101068.03
2023-01-13T16:25:39.103Z,101070.78
2023-01-13T16:28:58.126Z,101075.25
2023-01-13T16:32:01.535Z,101070.91
2023-01-13T16:35:12.578Z,101071.84
2023-01-13T16:38:06.877Z,101067.69
2023-01-13T16:40:54.625Z,101072.00
2023-01-13T16:43:39.328Z,101068.53
2023-01-13T16:46:23.696Z,101053.06
2023-01-13T16:48:57.451Z,101068.78
2023-01-13T16:51:36.024Z,101055.03
2023-01-13T16:54:04.385Z,101057.75
2023-01-13T16:56:34.428Z,101074.13
2023-01-13T16:59:08.773Z,101073.25
2023-01-13T17:01:41.292Z,101068.78
2023-01-13T17:04:16.419Z,101074.81
2023-01-13T17:06:50.922Z,101075.75
2023-01-13T17:09:22.502Z,101081.00
2023-01-13T17:11:51.250Z,101081.13
2023-01-13T17:14:23.370Z,101083.69
2023-01-13T17:17:00.012Z,101082.78
2023-01-13T17:19:28.982Z,101075.25
2023-01-13T17:21:58.156Z,101074.59
2023-01-13T17:24:28.941Z,101062.69
2023-01-13T17:26:57.936Z,101062.22
2023-01-13T17:29:27.773Z,101066.81
2023-01-13T17:31:58.101Z,101061.81
2023-01-13T17:34:26.505Z,101060.31
2023-01-13T17:36:54.734Z,101062.16
2023-01-13T17:39:25.283Z,101058.97
2023-01-13T17:41:56.056Z,101046.84
2023-01-13T17:44:24.462Z,101045.22
2023-01-13T17:46:53.235Z,101047.88
2023-01-13T17:49:23.424Z,101060.94
2023-01-13T17:51:53.190Z,101063.63
2023-01-13T17:54:21.788Z,101051.63
2023-01-13T17:56:50.469Z,101051.63
2023-01-13T17:59:20.807Z,101045.59
2023-01-13T18:01:49.375Z,101055.09
2023-01-13T18:04:19.543Z,101047.19
2023-01-13T18:06:49.776Z,101047.03
2023-01-13T18:09:19.169Z,101053.75
2023-01-13T18:11:47.984Z,101047.56
2023-01-13T18:14:16.538Z,101044.84
2023-01-13T18:16:45.288Z,101041.31
2023-01-13T18:19:31.235Z,101030.03
2023-01-13T18:22:18.665Z,101026.47
2023-01-13T18:25:04.519Z,101027.34
2023-01-13T18:27:35.257Z,101025.66
2023-01-13T18:30:05.241Z,101027.34
2023-01-13T18:32:35.112Z,101019.53
2023-01-13T18:35:07.181Z,101018.69
2023-01-13T18:37:38.824Z,101019.66
2023-01-13T18:40:09.451Z,101018.81
2023-01-13T21:48:47.229Z,100871.22
2023-01-13T21:51:15.591Z,100854.63
2023-01-13T21:53:43.877Z,100843.25
2023-01-13T21:56:12.280Z,100834.59
2023-01-13T21:58:40.785Z,100829.22
2023-01-13T22:01:10.051Z,100829.00
2023-01-13T22:03:59.123Z,100842.00
2023-01-13T22:06:28.913Z,100837.44
2023-01-13T22:09:00.013Z,100826.06
2023-01-13T22:11:28.411Z,100804.25
2023-01-13T22:14:10.195Z,100786.00
2023-01-13T22:19:39.378Z,100788.47
2023-01-13T22:22:14.372Z,100775.41
2023-01-13T22:24:44.387Z,100790.97
2023-01-13T22:27:13.125Z,100780.59
2023-01-13T22:29:41.530Z,100775.91
2023-01-13T22:32:14.144Z,100778.41
2023-01-13T22:34:43.169Z,100765.34
2023-01-13T22:37:13.313Z,100769.53
2023-01-13T22:39:41.828Z,100765.19
2023-01-13T22:42:11.848Z,100758.19
2023-01-13T22:44:40.555Z,100755.44
2023-01-13T22:47:10.128Z,100738.97
2023-01-13T22:49:38.578Z,100732.84
2023-01-13T22:52:07.322Z,100724.09
2023-01-13T22:54:37.079Z,100703.44
2023-01-13T22:57:05.487Z,100717.16
2023-01-13T22:59:33.996Z,100700.63
2023-01-13T23:02:02.392Z,100705.06
2023-01-13T23:04:32.311Z,100696.38
2023-01-13T23:07:01.199Z,100680.03
2023-01-13T23:09:31.044Z,100685.13
2023-01-13T23:12:00.860Z,100689.56
2023-01-13T23:14:30.689Z,100669.47
2023-01-13T23:16:59.020Z,100665.47
2023-01-13T23:19:27.353Z,100658.31
2023-01-13T23:21:55.771Z,100659.16
2023-01-13T23:24:26.679Z,100639.53
2023-01-13T23:26:54.969Z,100643.97
2023-01-13T23:29:24.737Z,100634.47
2023-01-13T23:31:53.416Z,100638.66
2023-01-13T23:34:21.773Z,100627.31
2023-01-13T23:36:50.194Z,100630.88
2023-01-13T23:39:18.574Z,100620.88
2023-01-13T23:41:46.950Z,100618.78
2023-01-13T23:44:15.326Z,100603.09
2023-01-13T23:46:45.032Z,100606.44
2023-01-13T23:49:13.982Z,100594.75
2023-01-13T23:51:42.266Z,100593.84
2023-01-13T23:54:10.827Z,100579.06
2023-01-13T23:56:39.743Z,100565.38
2023-01-13T23:59:09.546Z,100557.50
